Time;durP1;ratioP1;P1;durP2;ratioP2;P2;SDS_P1;SDS_P2;PMS_P1;PMS_P2;Temp;Humidity;BMP_temperature;BMP_pressure;BME280_temperature;BME280_humidity;BME280_pressure;Samples;Min_cycle;Max_cycle;Signal;HPM_P1;HPM_P2
2023/08/11 00:00:32;;;;;;;;;;;;;;;16.88;nan;100771.13;5028589;28;19916;-89
2023/08/11 00:03:05;;;;;;;;;;;;;;;16.94;nan;100769.53;5063342;28;19912;-88
2023/08/11 00:05:33;;;;;;;;;;;;;;;16.97;nan;100791.38;5068194;28;19958;-88
2023/08/11 00:08:08;;;;;;;;;;;;;;;16.97;nan;100763.81;5056458;28;19912;-89
2023/08/11 00:10:35;;;;;;;;;;;;;;;16.98;nan;100770.81;5050456;28;19916;-88
2023/08/11 00:13:24;;;;;;;;;;;;;;;16.97;nan;100770.00;5057109;28;19934;-89
2023/08/11 00:15:52;;;;;;;;;;;;;;;16.93;nan;100789.25;5054361;28;19916;-88
2023/08/11 00:18:22;;;;;;;;;;;;;;;16.86;nan;100783.84;5063102;28;19916;-88
2023/08/11 00:20:48;;;;;;;;;;;;;;;16.78;nan;100786.59;5045511;28;19978;-88
2023/08/11 00:23:15;;;;;;;;;;;;;;;16.71;nan;100797.19;5069154;28;19955;-89
2023/08/11 00:25:40;;;;;;;;;;;;;;;16.65;nan;100786.41;5075847;28;19926;-88
2023/08/11 00:28:09;;;;;;;;;;;;;;;16.56;nan;100778.50;5065214;28;19952;-88
2023/08/11 00:30:37;;;;;;;;;;;;;;;16.49;nan;100788.25;5066866;28;19984;-88
2023/08/11 00:33:03;;;;;;;;;;;;;;;;;;5084628;28;20012;-88
2023/08/11 00:35:29;;;;;;;;;;;;;;;16.31;nan;100798.47;5083864;28;19916;-89
2023/08/11 00:38:16;;;;;;;;;;;;;;;16.22;nan;100797.72;5059388;28;19954;-89
2023/08/11 00:40:44;;;;;;;;;;;;;;;16.13;nan;100794.28;5065935;28;20377;-89
2023/08/11 00:43:26;;;;;;;;;;;;;;;16.05;nan;100794.38;5060118;28;19913;-89
2023/08/11 00:45:54;;;;;;;;;;;;;;;16.01;nan;100797.56;5059287;28;19916;-89
2023/08/11 00:48:28;;;;;;;;;;;;;;;15.95;nan;100807.13;5058814;28;19996;-89
2023/08/11 00:51:06;;;;;;;;;;;;;;;15.88;nan;100801.69;5056290;28;19916;-88
2023/08/11 00:53:33;;;;;;;;;;;;;;;;;;5064030;28;19912;-89
2023/08/11 00:56:05;;;;;;;;;;;;;;;15.69;nan;100792.31;5087906;28;19966;-88
2023/08/11 00:58:35;;;;;;;;;;;;;;;15.62;nan;100791.38;5045250;28;19963;-89
2023/08/11 01:01:06;;;;;;;;;;;;;;;15.60;nan;100781.91;5069012;28;19969;-88
2023/08/11 01:03:36;;;;;;;;;;;;;;;15.56;nan;100796.56;5063624;28;20328;-88
2023/08/11 01:06:03;;;;;;;;;;;;;;;;;;5079448;28;19921;-88
2023/08/11 01:08:49;;;;;;;;;;;;;;;15.43;nan;100791.84;5076488;28;19917;-89
2023/08/11 01:11:32;;;;;;;;;;;;;;;;;;5061984;28;19943;-89
2023/08/11 01:14:19;;;;;;;;;;;;;;;15.31;nan;100778.09;5071275;28;20029;-88
2023/08/11 01:16:54;;;;;;;;;;;;;;;15.32;nan;100779.75;5071446;28;19995;-88
2023/08/11 01:19:19;;;;;;;;;;;;;;;;;;5082488;28;19912;-88
2023/08/11 01:21:47;;;;;;;;;;;;;;;;;;5078467;28;19977;-89
2023/08/11 01:24:12;;;;;;;;;;;;;;;15.53;nan;100780.94;5082275;28;20442;-89
2023/08/11 01:26:37;;;;;;;;;;;;;;;;;;5059649;28;20003;-89
2023/08/11 01:29:06;;;;;;;;;;;;;;;15.66;nan;100781.16;5061325;28;19916;-88
2023/08/11 01:31:31;;;;;;;;;;;;;;;15.64;nan;100762.69;5069847;28;20384;-88
2023/08/11 01:33:57;;;;;;;;;;;;;;;;;;5070612;28;19917;-89
2023/08/11 01:36:41;;;;;;;;;;;;;;;15.63;nan;100776.19;5087869;28;19969;-89
2023/08/11 01:39:09;;;;;;;;;;;;;;;;;;5062588;28;19920;-89
2023/08/11 01:41:37;;;;;;;;;;;;;;;15.59;nan;100775.75;5061894;28;19927;-89
2023/08/11 01:44:06;;;;;;;;;;;;;;;15.56;nan;100780.59;5057908;28;20370;-89
2023/08/11 01:46:33;;;;;;;;;;;;;;;15.52;nan;100772.13;5047680;28;19916;-89
2023/08/11 01:49:02;;;;;;;;;;;;;;;;;;5065803;28;19912;-89
2023/08/11 01:51:39;;;;;;;;;;;;;;;15.49;nan;100769.81;5080922;28;20003;-89
2023/08/11 01:54:08;;;;;;;;;;;;;;;15.47;nan;100762.00;5060216;28;20372;-89
2023/08/11 01:56:42;;;;;;;;;;;;;;;15.47;nan;100772.66;5049322;28;19974;-88
2023/08/11 01:59:17;;;;;;;;;;;;;;;15.45;nan;100757.84;5049801;28;20007;-89
2023/08/11 02:01:52;;;;;;;;;;;;;;;15.44;nan;100757.00;5064891;28;19962;-89
2023/08/11 02:04:34;;;;;;;;;;;;;;;15.44;nan;100754.34;5043378;28;19966;-89
2023/08/11 02:06:59;;;;;;;;;;;;;;;;;;5050994;28;19966;-89
2023/08/11 02:09:25;;;;;;;;;;;;;;;;;;5065181;28;19920;-88
2023/08/11 02:11:53;;;;;;;;;;;;;;;;;;5059129;28;19916;-88
2023/08/11 02:14:20;;;;;;;;;;;;;;;;;;5038529;28;20431;-88
2023/08/11 02:16:48;;;;;;;;;;;;;;;;;;5050553;28;19936;-88
2023/08/11 02:19:13;;;;;;;;;;;;;;;;;;5058131;28;19915;-88
2023/08/11 02:21:39;;;;;;;;;;;;;;;;;;5060382;28;20008;-89
2023/08/11 02:24:17;;;;;;;;;;;;;;;;;;5037444;28;19924;-89
2023/08/11 02:26:43;;;;;;;;;;;;;;;;;;5042583;28;19928;-88
2023/08/11 02:29:12;;;;;;;;;;;;;;;;;;5080263;28;19916;-89
2023/08/11 02:31:37;;;;;;;;;;;;;;;;;;5054140;28;19982;-89
2023/08/11 02:34:02;;;;;;;;;;;;;;;;;;5075808;28;19920;-88
2023/08/11 02:36:28;;;;;;;;;;;;;;;;;;5078133;28;19916;-88
2023/08/11 02:38:58;;;;;;;;;;;;;;;;;;5040461;28;19912;-89
2023/08/11 02:41:23;;;;;;;;;;;;;;;;;;5065529;28;19916;-89
2023/08/11 02:43:54;;;;;;;;;;;;;;;15.31;nan;100735.47;5058517;28;20397;-89
2023/08/11 02:46:22;;;;;;;;;;;;;;;;;;5056124;28;19932;-89
2023/08/11 02:48:48;;;;;;;;;;;;;;;15.34;nan;100732.44;5042041;28;19924;-88
2023/08/11 02:51:29;;;;;;;;;;;;;;;;;;5065733;28;20771;-88
2023/08/11 02:54:04;;;;;;;;;;;;;;;15.22;nan;100737.34;5062832;28;19920;-89
2023/08/11 02:56:32;;;;;;;;;;;;;;;15.19;nan;100736.91;5034784;28;19948;-89
2023/08/11 02:58:58;;;;;;;;;;;;;;;;;;5046187;28;19923;-89
2023/08/11 03:01:25;;;;;;;;;;;;;;;15.13;nan;100743.75;5065363;28;19913;-89
2023/08/11 03:03:58;;;;;;;;;;;;;;;15.11;nan;100742.25;5057522;28;20286;-89
2023/08/11 03:06:27;;;;;;;;;;;;;;;;;;5033606;28;20669;-89
2023/08/11 03:08:56;;;;;;;;;;;;;;;;;;5083754;28;19931;-89
2023/08/11 03:11:23;;;;;;;;;;;;;;;;;;5062831;28;20001;-90
2023/08/11 03:13:55;;;;;;;;;;;;;;;14.85;nan;100756.72;5049277;28;20421;-89
2023/08/11 03:16:32;;;;;;;;;;;;;;;14.78;nan;100761.91;5054522;28;19938;-89
2023/08/11 03:19:02;;;;;;;;;;;;;;;14.73;nan;100745.63;5062470;28;19916;-89
2023/08/11 03:21:28;;;;;;;;;;;;;;;;;;5065178;28;19923;-89
2023/08/11 03:23:54;;;;;;;;;;;;;;;14.63;nan;100761.81;5055767;28;19920;-89
2023/08/11 03:26:21;;;;;;;;;;;;;;;;;;5046053;28;19963;-89
2023/08/11 03:28:49;;;;;;;;;;;;;;;;;;5061916;28;20389;-89
2023/08/11 03:31:18;;;;;;;;;;;;;;;;;;5064173;28;19927;-89
2023/08/11 03:33:49;;;;;;;;;;;;;;;;;;5085696;28;20013;-88
2023/08/11 03:36:17;;;;;;;;;;;;;;;;;;5097344;28;19921;-88
2023/08/11 03:38:42;;;;;;;;;;;;;;;;;;5056291;28;19920;-88
2023/08/11 03:41:08;;;;;;;;;;;;;;;;;;5065426;28;19912;-88
2023/08/11 03:43:36;;;;;;;;;;;;;;;;;;5065748;28;19946;-89
2023/08/11 03:46:01;;;;;;;;;;;;;;;;;;5052413;28;19962;-89
2023/08/11 03:48:26;;;;;;;;;;;;;;;;;;5079295;28;20320;-88
2023/08/11 03:50:52;;;;;;;;;;;;;;;;;;5060242;28;19916;-88
2023/08/11 03:53:25;;;;;;;;;;;;;;;;;;5061617;28;20087;-89
2023/08/11 03:55:57;;;;;;;;;;;;;;;;;;5050932;28;19920;-89
2023/08/11 03:58:27;;;;;;;;;;;;;;;;;;5045350;28;19913;-89
2023/08/11 04:00:53;;;;;;;;;;;;;;;;;;5051675;28;19917;-89
2023/08/11 04:03:19;;;;;;;;;;;;;;;;;;5081416;28;20010;-89
2023/08/11 04:05:46;;;;;;;;;;;;;;;;;;5082691;28;20360;-89
2023/08/11 04:08:11;;;;;;;;;;;;;;;;;;5046131;28;19943;-89
2023/08/11 04:10:42;;;;;;;;;;;;;;;;;;5070324;28;20270;-88
2023/08/11 04:13:08;;;;;;;;;;;;;;;;;;5076755;28;20290;-89
2023/08/11 04:15:33;;;;;;;;;;;;;;;;;;5081838;28;20394;-90
2023/08/11 04:17:58;;;;;;;;;;;;;;;;;;5089360;28;20377;-89
2023/08/11 04:20:24;;;;;;;;;;;;;;;;;;5050985;28;19916;-89
2023/08/11 04:22:49;;;;;;;;;;;;;;;;;;5053158;28;19926;-88
2023/08/11 04:25:14;;;;;;;;;;;;;;;;;;5049022;28;19924;-89
2023/08/11 04:27:40;;;;;;;;;;;;;;;;;;5055561;28;19916;-89
2023/08/11 04:30:10;;;;;;;;;;;;;;;;;;5063533;28;19916;-90
2023/08/11 04:32:36;;;;;;;;;;;;;;;;;;5076709;28;19943;-87
2023/08/11 04:35:09;;;;;;;;;;;;;;;13.98;nan;100769.91;5059068;28;19916;-88
2023/08/11 04:37:34;;;;;;;;;;;;;;;;;;5057574;28;19916;-88
2023/08/11 04:40:02;;;;;;;;;;;;;;;;;;5056243;28;19931;-88
2023/08/11 04:42:28;;;;;;;;;;;;;;;;;;5016657;28;19930;-88
2023/08/11 04:45:02;;;;;;;;;;;;;;;;;;5064242;28;20491;-88
2023/08/11 04:47:37;;;;;;;;;;;;;;;;;;5043235;28;19928;-88
2023/08/11 04:50:02;;;;;;;;;;;;;;;;;;5084605;28;19947;-88
2023/08/11 04:52:27;;;;;;;;;;;;;;;;;;5072576;28;19916;-87
2023/08/11 04:55:03;;;;;;;;;;;;;;;;;;5053908;28;21114;-88
2023/08/11 04:57:28;;;;;;;;;;;;;;;;;;5049057;28;20007;-87
2023/08/11 04:59:55;;;;;;;;;;;;;;;;;;5074795;28;19916;-88
2023/08/11 05:02:21;;;;;;;;;;;;;;;;;;5094862;28;19920;-89
2023/08/11 05:04:46;;;;;;;;;;;;;;;;;;5049460;28;19916;-89
2023/08/11 05:07:14;;;;;;;;;;;;;;;;;;5064764;28;20350;-89
2023/08/11 05:09:40;;;;;;;;;;;;;;;;;;5060996;28;19971;-89
2023/08/11 05:12:05;;;;;;;;;;;;;;;;;;5067408;28;19917;-89
2023/08/11 05:14:32;;;;;;;;;;;;;;;;;;5085084;28;19923;-89
2023/08/11 05:16:58;;;;;;;;;;;;;;;;;;5052865;28;20374;-89
2023/08/11 05:19:26;;;;;;;;;;;;;;;;;;5055288;28;19916;-89
2023/08/11 05:21:51;;;;;;;;;;;;;;;;;;5065449;28;19920;-89
2023/08/11 05:24:19;;;;;;;;;;;;;;;;;;5080087;28;19961;-89
2023/08/11 05:26:44;;;;;;;;;;;;;;;;;;5080223;28;20454;-89
2023/08/11 05:29:09;;;;;;;;;;;;;;;;;;5052976;28;19917;-89
2023/08/11 05:31:37;;;;;;;;;;;;;;;16.40;nan;100825.88;5082640;28;19916;-89
2023/08/11 05:34:03;;;;;;;;;;;;;;;16.62;nan;100830.31;5050436;28;19925;-89
2023/08/11 05:36:29;;;;;;;;;;;;;;;16.94;nan;100828.31;5041028;28;20377;-89
2023/08/11 05:38:57;;;;;;;;;;;;;;;17.27;nan;100822.53;5043170;28;19978;-89
2023/08/11 05:41:23;;;;;;;;;;;;;;;17.57;nan;100818.75;5054122;28;19920;-89
2023/08/11 05:43:51;;;;;;;;;;;;;;;17.92;nan;100832.25;5048853;28;19925;-89
2023/08/11 05:46:16;;;;;;;;;;;;;;;18.19;nan;100827.97;5044638;28;19971;-89
2023/08/11 05:48:48;;;;;;;;;;;;;;;18.42;nan;100833.09;5094273;28;19912;-89
2023/08/11 05:51:19;;;;;;;;;;;;;;;18.75;nan;100836.97;5059516;28;20369;-88
2023/08/11 05:53:44;;;;;;;;;;;;;;;19.09;nan;100849.53;5058511;28;20273;-89
2023/08/11 05:56:09;;;;;;;;;;;;;;;19.25;nan;100843.81;5045162;28;20011;-89
2023/08/11 05:58:35;;;;;;;;;;;;;;;19.50;nan;100857.50;5061209;28;19951;-89
2023/08/11 06:01:03;;;;;;;;;;;;;;;19.93;nan;100859.06;5057565;28;19916;-91
2023/08/11 06:03:32;;;;;;;;;;;;;;;20.24;nan;100858.44;5054519;28;19916;-91
2023/08/11 06:06:05;;;;;;;;;;;;;;;20.65;nan;100870.81;5063632;28;19921;-92
2023/08/11 06:08:31;;;;;;;;;;;;;;;20.96;nan;100872.81;5056295;28;19916;-91
2023/08/11 06:10:59;;;;;;;;;;;;;;;21.21;nan;100874.78;5066596;28;20318;-91
2023/08/11 06:13:24;;;;;;;;;;;;;;;21.41;nan;100875.56;5040148;28;19924;-91
2023/08/11 06:15:50;;;;;;;;;;;;;;;21.37;nan;100871.59;5055057;28;19961;-92
2023/08/11 06:18:20;;;;;;;;;;;;;;;21.40;nan;100867.69;5046460;28;20305;-91
2023/08/11 06:20:47;;;;;;;;;;;;;;;21.66;nan;100872.09;5044942;28;20401;-91
2023/08/11 06:23:12;;;;;;;;;;;;;;;21.82;nan;100876.13;5055053;28;19924;-91
2023/08/11 06:25:38;;;;;;;;;;;;;;;22.27;nan;100876.03;5038919;28;19920;-91
2023/08/11 06:28:20;;;;;;;;;;;;;;;22.68;nan;100882.69;5056180;28;19920;-91
2023/08/11 06:30:49;;;;;;;;;;;;;;;22.99;nan;100886.34;5065857;28;19944;-92
2023/08/11 06:33:19;;;;;;;;;;;;;;;23.10;nan;100897.19;5050970;28;19978;-92
2023/08/11 06:35:48;;;;;;;;;;;;;;;23.06;nan;100893.28;5054407;28;19927;-92
2023/08/11 06:38:18;;;;;;;;;;;;;;;23.27;nan;100899.28;5037934;28;19952;-91
2023/08/11 06:40:44;;;;;;;;;;;;;;;23.72;nan;100905.09;5047207;28;20445;-91
2023/08/11 06:43:12;;;;;;;;;;;;;;;23.91;nan;100897.78;5046644;28;19916;-91
2023/08/11 06:45:50;;;;;;;;;;;;;;;23.95;nan;100901.69;5049482;28;19924;-91
2023/08/11 06:48:20;;;;;;;;;;;;;;;24.18;nan;100910.88;5043900;28;19923;-92
2023/08/11 06:50:46;;;;;;;;;;;;;;;24.38;nan;100905.13;5059427;28;19916;-92
2023/08/11 06:53:11;;;;;;;;;;;;;;;24.71;nan;100909.16;5059164;28;19924;-91
2023/08/11 06:55:42;;;;;;;;;;;;;;;24.93;nan;100912.06;5067081;28;19938;-92
2023/08/11 06:58:07;;;;;;;;;;;;;;;25.06;nan;100905.59;5050500;28;19963;-92
2023/08/11 07:00:36;;;;;;;;;;;;;;;25.19;nan;100916.19;5078138;28;20324;-92
2023/08/11 07:03:04;;;;;;;;;;;;;;;25.38;nan;100914.13;5050749;28;20071;-91
2023/08/11 07:05:29;;;;;;;;;;;;;;;25.77;nan;100917.03;5049656;28;19916;-92
2023/08/11 07:07:57;;;;;;;;;;;;;;;26.13;nan;100928.53;5059190;28;19912;-92
2023/08/11 07:10:25;;;;;;;;;;;;;;;26.16;nan;100926.13;5036957;28;19911;-92
2023/08/11 07:12:53;;;;;;;;;;;;;;;26.34;nan;100922.38;5059981;28;19913;-92
2023/08/11 07:15:21;;;;;;;;;;;;;;;26.61;nan;100916.28;5050737;28;19912;-92
2023/08/11 07:17:47;;;;;;;;;;;;;;;26.92;nan;100933.00;5057661;28;19916;-89
2023/08/11 07:20:15;;;;;;;;;;;;;;;27.19;nan;100952.91;5056878;28;19961;-89
2023/08/11 07:23:00;;;;;;;;;;;;;;;27.36;nan;100954.75;5050769;28;19971;-91
2023/08/11 07:25:28;;;;;;;;;;;;;;;27.35;nan;100955.84;5049671;28;19924;-89
2023/08/11 07:27:56;;;;;;;;;;;;;;;27.48;nan;100950.00;5049407;28;19920;-89
2023/08/11 07:30:25;;;;;;;;;;;;;;;27.69;nan;100957.31;5048946;28;20457;-89
2023/08/11 07:32:59;;;;;;;;;;;;;;;27.98;nan;100957.06;5078089;28;19924;-90
2023/08/11 07:35:27;;;;;;;;;;;;;;;28.37;nan;100957.69;5046442;28;20588;-88
2023/08/11 07:37:52;;;;;;;;;;;;;;;28.77;nan;100975.44;5053623;28;19916;-90
2023/08/11 07:40:18;;;;;;;;;;;;;;;28.71;nan;100971.03;5078435;28;19924;-91
2023/08/11 07:42:43;;;;;;;;;;;;;;;28.91;nan;100974.97;5062410;28;20335;-91
2023/08/11 07:45:11;;;;;;;;;;;;;;;29.11;nan;100980.56;5061996;28;19919;-92
2023/08/11 07:47:45;;;;;;;;;;;;;;;29.41;nan;100973.59;5062561;28;20200;-91
2023/08/11 07:50:10;;;;;;;;;;;;;;;29.54;nan;100978.56;5068466;28;20292;-90
2023/08/11 07:52:38;;;;;;;;;;;;;;;29.48;nan;100971.44;5054037;28;19912;-91
2023/08/11 07:55:04;;;;;;;;;;;;;;;29.58;nan;100979.66;5058997;28;20320;-92
2023/08/11 07:57:38;;;;;;;;;;;;;;;29.82;nan;100984.66;5069409;28;20003;-92
2023/08/11 08:00:05;;;;;;;;;;;;;;;29.92;nan;100973.78;5058857;28;20004;-92
2023/08/11 08:02:38;;;;;;;;;;;;;;;30.15;nan;100982.50;5058405;28;19912;-92
2023/08/11 08:05:07;;;;;;;;;;;;;;;30.31;nan;100981.47;5067131;28;19947;-91
2023/08/11 08:07:32;;;;;;;;;;;;;;;30.36;nan;100983.38;5064724;28;19917;-91
2023/08/11 08:10:25;;;;;;;;;;;;;;;30.48;nan;100986.63;5067030;28;19973;-91
2023/08/11 08:12:50;;;;;;;;;;;;;;;30.81;nan;100992.59;5061406;28;19960;-92
2023/08/11 08:15:24;;;;;;;;;;;;;;;31.10;nan;100982.72;5074699;28;20374;-93
2023/08/11 08:17:49;;;;;;;;;;;;;;;31.24;nan;100990.34;5063723;28;19912;-90
2023/08/11 08:20:16;;;;;;;;;;;;;;;31.36;nan;100985.34;5061215;28;19912;-91
2023/08/11 08:22:42;;;;;;;;;;;;;;;31.65;nan;100981.97;5060091;28;19912;-91
2023/08/11 08:25:08;;;;;;;;;;;;;;;32.03;nan;100983.09;5062022;28;19912;-92
2023/08/11 08:27:40;;;;;;;;;;;;;;;31.92;nan;100982.34;5070696;28;19939;-92
2023/08/11 08:30:10;;;;;;;;;;;;;;;32.02;nan;100978.75;5066330;28;20343;-92
2023/08/11 08:32:37;;;;;;;;;;;;;;;32.21;nan;100978.06;5078240;28;19927;-91
2023/08/11 08:35:03;;;;;;;;;;;;;;;32.29;nan;100978.25;5060659;28;19912;-92
2023/08/11 08:37:31;;;;;;;;;;;;;;;32.47;nan;100973.19;5058038;28;19912;-92
2023/08/11 08:39:57;;;;;;;;;;;;;;;32.66;nan;100976.06;5061183;28;19912;-93
2023/08/11 08:42:27;;;;;;;;;;;;;;;32.95;nan;100937.66;5061681;28;19919;-92
2023/08/11 08:45:03;;;;;;;;;;;;;;;33.39;nan;100974.94;5057061;28;19917;-92
2023/08/11 08:47:28;;;;;;;;;;;;;;;34.00;nan;100974.09;5057179;28;19970;-94
2023/08/11 08:49:57;;;;;;;;;;;;;;;34.05;nan;100971.25;5056508;28;19920;-92
2023/08/11 08:52:22;;;;;;;;;;;;;;;34.50;nan;100970.81;5055866;28;19913;-92
2023/08/11 08:54:51;;;;;;;;;;;;;;;35.02;nan;100973.44;5055938;28;19913;-93
2023/08/11 08:57:21;;;;;;;;;;;;;;;35.44;nan;100971.47;5056317;28;19912;-91
2023/08/11 08:59:52;;;;;;;;;;;;;;;35.53;nan;100970.44;5038081;28;20384;-91
2023/08/11 09:02:36;;;;;;;;;;;;;;;35.78;nan;100970.19;5041877;28;19967;-91
2023/08/11 09:05:01;;;;;;;;;;;;;;;36.13;nan;100955.59;5050718;28;19917;-91
2023/08/11 09:07:30;;;;;;;;;;;;;;;36.25;nan;100966.03;5038066;28;21027;-92
2023/08/11 09:09:55;;;;;;;;;;;;;;;36.36;nan;100961.09;5042772;28;20281;-92
2023/08/11 09:12:20;;;;;;;;;;;;;;;36.35;nan;100967.69;5055523;28;19916;-91
2023/08/11 09:14:52;;;;;;;;;;;;;;;35.98;nan;100968.91;5040157;28;20524;-91
2023/08/11 09:17:18;;;;;;;;;;;;;;;36.42;nan;100962.56;5050821;28;19922;-91
2023/08/11 09:19:50;;;;;;;;;;;;;;;36.67;nan;100968.56;5047168;28;20292;-92
2023/08/11 09:22:20;;;;;;;;;;;;;;;36.92;nan;100959.59;5046816;28;19937;-91
2023/08/11 09:24:48;;;;;;;;;;;;;;;37.16;nan;100966.63;5069644;28;19916;-91
2023/08/11 09:27:14;;;;;;;;;;;;;;;37.11;nan;100967.59;5045717;28;19964;-91
2023/08/11 09:29:41;;;;;;;;;;;;;;;37.49;nan;100961.47;5065623;28;20409;-92
2023/08/11 09:34:43;;;;;;;;;;;;;;;38.14;nan;100967.19;5046692;23;19921;-82
2023/08/11 09:37:08;;;;;;;;;;;;;;;37.76;nan;100965.91;5067865;28;20013;-82
2023/08/11 09:39:34;;;;;;;;;;;;;;;37.68;nan;100968.69;5057592;28;19912;-82
2023/08/11 09:42:00;;;;;;;;;;;;;;;38.10;nan;100963.47;5077527;28;20855;-81
2023/08/11 09:44:25;;;;;;;;;;;;;;;38.38;nan;100963.91;5091993;28;19967;-81
2023/08/11 09:46:51;;;;;;;;;;;;;;;38.79;nan;100957.75;5095504;28;19924;-81
2023/08/11 09:49:16;;;;;;;;;;;;;;;38.91;nan;100956.25;5065229;28;19923;-82
2023/08/11 09:51:42;;;;;;;;;;;;;;;39.00;nan;100955.06;5084987;28;19924;-81
2023/08/11 09:54:09;;;;;;;;;;;;;;;39.06;nan;100958.44;5061374;28;20440;-81
2023/08/11 09:56:35;;;;;;;;;;;;;;;39.16;nan;100962.78;5064569;28;19984;-81
2023/08/11 09:59:02;;;;;;;;;;;;;;;39.31;nan;100964.97;5045854;28;20439;-82
2023/08/11 10:01:30;;;;;;;;;;;;;;;39.71;nan;100958.97;5052724;28;19924;-82
2023/08/11 10:04:00;;;;;;;;;;;;;;;40.09;nan;100952.44;5040721;28;19901;-81
2023/08/11 10:06:27;;;;;;;;;;;;;;;40.50;nan;100964.56;5051347;28;19973;-81
2023/08/11 10:08:53;;;;;;;;;;;;;;;40.78;nan;100961.16;5074779;28;19919;-81
2023/08/11 10:11:22;;;;;;;;;;;;;;;40.47;nan;100957.75;5100193;28;20027;-83
2023/08/11 10:13:47;;;;;;;;;;;;;;;39.81;nan;100947.53;5084776;28;19912;-81
2023/08/11 10:16:14;;;;;;;;;;;;;;;39.98;nan;100952.09;5074338;28;19982;-82
2023/08/11 10:18:43;;;;;;;;;;;;;;;40.41;nan;100952.78;5094103;28;19962;-87
2023/08/11 10:21:08;;;;;;;;;;;;;;;40.65;nan;100946.47;5076038;28;19923;-84
2023/08/11 10:23:36;;;;;;;;;;;;;;;40.55;nan;100954.06;5086242;28;20321;-83
2023/08/11 10:26:01;;;;;;;;;;;;;;;40.94;nan;100951.78;5098357;28;19951;-79
2023/08/11 10:28:26;;;;;;;;;;;;;;;41.13;nan;100945.66;5071492;28;19913;-78
2023/08/11 10:31:16;;;;;;;;;;;;;;;41.11;nan;100941.63;5087955;28;19923;-81
2023/08/11 10:33:47;;;;;;;;;;;;;;;41.05;nan;100948.53;5087248;28;19923;-80
2023/08/11 10:36:15;;;;;;;;;;;;;;;41.12;nan;100944.06;5079877;28;19916;-80
2023/08/11 10:38:40;;;;;;;;;;;;;;;41.18;nan;100942.63;5079030;28;19923;-80
2023/08/11 10:41:08;;;;;;;;;;;;;;;41.65;nan;100952.38;5078087;28;19915;-80
2023/08/11 10:43:34;;;;;;;;;;;;;;;41.97;nan;100950.50;5098182;28;19916;-81
2023/08/11 10:46:18;;;;;;;;;;;;;;;42.20;nan;100952.69;5093143;28;19950;-82
2023/08/11 10:48:43;;;;;;;;;;;;;;;42.01;nan;100947.84;5079146;28;20346;-80
2023/08/11 10:51:25;;;;;;;;;;;;;;;41.61;nan;100951.47;5093004;28;19915;-80
2023/08/11 10:53:50;;;;;;;;;;;;;;;41.86;nan;100940.22;5091642;28;19938;-80
2023/08/11 10:56:25;;;;;;;;;;;;;;;42.38;nan;100942.88;5096727;28;20375;-80
2023/08/11 10:58:51;;;;;;;;;;;;;;;42.99;nan;100949.13;5098076;28;19916;-83
2023/08/11 11:01:17;;;;;;;;;;;;;;;43.15;nan;100946.31;5090039;28;19916;-81
2023/08/11 11:03:44;;;;;;;;;;;;;;;42.97;nan;100940.31;5080278;28;19984;-81
2023/08/11 11:06:10;;;;;;;;;;;;;;;43.34;nan;100934.41;5074844;28;19966;-81
2023/08/11 11:08:35;;;;;;;;;;;;;;;43.15;nan;100924.03;5077973;28;19916;-82
2023/08/11 11:11:01;;;;;;;;;;;;;;;42.98;nan;100925.22;5100265;28;19927;-84
2023/08/11 11:13:26;;;;;;;;;;;;;;;43.29;nan;100921.59;5093033;28;20006;-87
2023/08/11 11:15:52;;;;;;;;;;;;;;;43.96;nan;100924.13;5081349;28;19958;-86
2023/08/11 11:18:17;;;;;;;;;;;;;;;44.50;nan;100916.69;5091951;28;19922;-87
2023/08/11 11:20:42;;;;;;;;;;;;;;;44.76;nan;100915.91;5091884;28;19956;-85
2023/08/11 11:23:07;;;;;;;;;;;;;;;44.57;nan;100913.22;5098032;28;19916;-86
2023/08/11 11:25:32;;;;;;;;;;;;;;;44.77;nan;100899.97;5076974;28;19926;-86
2023/08/11 11:27:58;;;;;;;;;;;;;;;45.11;nan;100898.88;5091509;28;19920;-85
2023/08/11 11:30:23;;;;;;;;;;;;;;;45.22;nan;100893.47;5091378;28;20321;-86
2023/08/11 11:32:49;;;;;;;;;;;;;;;45.14;nan;100886.16;5090394;28;19912;-86
2023/08/11 11:35:14;;;;;;;;;;;;;;;45.27;nan;100886.75;5093906;28;19973;-86
2023/08/11 11:37:40;;;;;;;;;;;;;;;45.65;nan;100882.81;5097984;28;19994;-87
2023/08/11 11:40:09;;;;;;;;;;;;;;;45.87;nan;100883.81;5085464;28;20006;-86
2023/08/11 11:42:36;;;;;;;;;;;;;;;45.73;nan;100889.28;5060454;28;20413;-81
2023/08/11 11:45:01;;;;;;;;;;;;;;;45.51;nan;100880.63;5091084;28;20015;-81
2023/08/11 11:47:27;;;;;;;;;;;;;;;45.24;nan;100879.91;5079765;28;19951;-82
2023/08/11 11:49:56;;;;;;;;;;;;;;;44.29;nan;100873.34;5079638;28;20424;-81
2023/08/11 11:52:21;;;;;;;;;;;;;;;43.89;nan;100874.63;5085890;28;19912;-82
2023/08/11 11:54:50;;;;;;;;;;;;;;;44.17;nan;100875.50;5078710;28;20272;-82
2023/08/11 11:57:16;;;;;;;;;;;;;;;44.51;nan;100880.09;5087028;28;19926;-83
2023/08/11 11:59:41;;;;;;;;;;;;;;;44.44;nan;100871.59;5090854;28;20438;-81
2023/08/11 12:02:06;;;;;;;;;;;;;;;43.60;nan;100870.53;5082143;28;19922;-83
2023/08/11 12:04:32;;;;;;;;;;;;;;;43.54;nan;100873.94;5077278;28;19916;-84
2023/08/11 12:06:57;;;;;;;;;;;;;;;43.97;nan;100872.75;5091277;28;19928;-84
2023/08/11 12:09:22;;;;;;;;;;;;;;;43.60;nan;100873.31;5077885;28;19927;-84
2023/08/11 12:11:48;;;;;;;;;;;;;;;43.03;nan;100870.13;5091055;28;19931;-84
2023/08/11 12:14:14;;;;;;;;;;;;;;;41.87;nan;100867.66;5093583;28;19920;-82
2023/08/11 12:16:39;;;;;;;;;;;;;;;40.81;nan;100868.94;5089323;28;19944;-84
2023/08/11 12:19:05;;;;;;;;;;;;;;;40.22;nan;100867.41;5081908;28;19967;-84
2023/08/11 12:21:30;;;;;;;;;;;;;;;39.76;nan;100872.97;5088765;28;19916;-84
2023/08/11 12:23:56;;;;;;;;;;;;;;;39.40;nan;100874.44;5083440;28;19922;-83
2023/08/11 12:26:21;;;;;;;;;;;;;;;38.77;nan;100871.56;5076461;28;19963;-84
2023/08/11 12:28:46;;;;;;;;;;;;;;;38.07;nan;100878.50;5076321;28;19948;-84
2023/08/11 12:31:12;;;;;;;;;;;;;;;37.81;nan;100873.88;5086038;28;19915;-85
2023/08/11 12:33:38;;;;;;;;;;;;;;;37.31;nan;100866.91;5085330;28;19920;-82
2023/08/11 12:36:03;;;;;;;;;;;;;;;36.85;nan;100876.56;5088602;28;19942;-84
2023/08/11 12:38:30;;;;;;;;;;;;;;;36.58;nan;100863.81;5085996;28;19994;-92
2023/08/11 12:40:55;;;;;;;;;;;;;;;36.20;nan;100860.72;5077375;28;19920;-85
2023/08/11 12:43:21;;;;;;;;;;;;;;;35.87;nan;100858.25;5093706;28;19914;-88
2023/08/11 12:45:46;;;;;;;;;;;;;;;35.76;nan;100856.91;5081480;28;19931;-82
2023/08/11 12:48:11;;;;;;;;;;;;;;;35.58;nan;100861.41;5092705;28;19975;-86
2023/08/11 12:50:38;;;;;;;;;;;;;;;35.28;nan;100864.59;5092896;28;20000;-86
2023/08/11 12:53:05;;;;;;;0.00;0.00;;;;;;;34.98;nan;100843.25;5097498;28;19920;-86
2023/08/11 12:55:30;;;;;;;0.00;0.00;;;;;;;34.73;nan;100858.34;5084290;28;20044;-86
2023/08/11 12:57:55;;;;;;;;;;;;;;;;;;5079898;28;20033;-86
2023/08/11 13:00:21;;;;;;;0.00;0.00;;;;;;;34.49;nan;100878.56;5089739;28;19916;-84
2023/08/11 13:02:47;;;;;;;0.00;0.00;;;;;;;34.14;nan;100855.34;5081916;28;20024;-85
2023/08/11 13:05:16;;;;;;;0.00;0.00;;;;;;;33.92;nan;100855.97;5089410;28;20274;-87
2023/08/11 13:07:43;;;;;;;0.00;0.00;;;;;;;33.77;nan;100848.81;5075063;28;20043;-85
2023/08/11 13:10:10;;;;;;;0.00;0.00;;;;;;;33.49;nan;100825.94;5094205;28;20043;-83
2023/08/11 13:12:39;;;;;;;0.00;0.00;;;;;;;33.45;nan;100781.88;5081902;28;20032;-82
2023/08/11 13:15:05;;;;;;;0.00;0.00;;;;;;;33.42;nan;100840.84;5096809;28;20028;-82
2023/08/11 13:17:34;;;;;;;0.00;0.00;;;;;;;33.20;nan;100816.78;5091814;28;20122;-85
2023/08/11 13:20:03;;;;;;;0.00;0.00;;;;;;;33.13;nan;100873.91;5075816;28;20044;-86
2023/08/11 13:22:31;;;;;;;0.00;0.00;;;;;;;32.95;nan;100866.44;5071396;28;20108;-85
2023/08/11 13:24:56;;;;;;;0.00;0.00;;;;;;;;;;5078255;28;20028;-86
2023/08/11 13:27:21;;;;;;;0.00;0.00;;;;;;;;;;5096656;28;20040;-85
2023/08/11 13:29:46;;;;;;;0.00;0.00;;;;;;;32.17;nan;100808.16;5076857;28;20499;-86
2023/08/11 13:32:11;;;;;;;;;;;;;;;32.17;nan;100824.59;5087446;28;20031;-84
2023/08/11 13:34:37;;;;;;;;;;;;;;;32.22;nan;100821.78;5096320;28;19923;-85
2023/08/11 13:37:04;;;;;;;0.00;0.00;;;;;;;32.23;nan;100812.50;5064068;28;22394;-84
2023/08/11 13:39:29;;;;;;;0.00;0.00;;;;;;;32.20;nan;100815.78;5073992;28;20067;-83
2023/08/11 13:41:54;;;;;;;;;;;;;;;32.11;nan;100820.28;5075764;28;20051;-85
2023/08/11 13:44:20;;;;;;;0.00;0.00;;;;;;;;;;5077294;28;19913;-84
2023/08/11 13:46:45;;;;;;;;;;;;;;;31.89;nan;100813.34;5061848;28;20041;-86